Airfield :
LOGIN :

Register | Disclaimer

   EN    FR    IT 

 










Legend :    VFR   Marginal VFR   IFR   Intensive IFR   Very Intensive IFR
Visi :
Ceiling :
>= 8 km
>= 3000ft
5 to 8 km
1000 to 3000 ft
1500m to 5 km
500 to 1000 ft
800 to 1500m
200 to 500 ft
< 800m
< 200 ft
Symbols :   Thunderstorms  Fog  Heavy snow  Heavy precipitations  Wind > 20 kt
SIGMETs :     Misc.  Thunderstorms  Icing  Turbulence  Mountain Waves  Volcanic Ashes







- Airport Elevation : 16 ft
- IATA code : SDR


LEXJ - Santander Cantabria

CURRENT METAR :
  • 200730Z VRB02KT 4000 -RADZ FEW003 SCT006 BKN020 16/16 Q1018

EXPIRED METARs :
  • 200700Z 00000KT 4000 -DZ FEW003 SCT009 OVC025 16/16 Q1018
  • 200630Z VRB02KT 3500 DZ FEW003 BKN009 OVC020 16/16 Q1018
  • 200600Z 20003KT 5000 -DZ FEW003 SCT009 OVC023 16/16 Q1018
  • 200551Z VRB01KT 5000 -DZ FEW003 SCT009 OVC023 16/16 Q1018
  • 200530Z 00000KT 3000 DZ FEW003 BKN009 OVC017 16/16 Q1017
  • 200500Z 25003KT 210V280 2000 DZ FEW002 BKN007 OVC014 16/16 Q1017

TAF AMD TAF LEXJ
Valid from the 20 at 04:00 until the 21 at 03:00 UTC


200445Z 2004/2103 36007KT 9999 SCT010 BKN025 TX19/2015Z TN14/2005Z
PROB40
TEMPO 2004/2010 BKN014
PROB40
TEMPO 2004/2009 3000 -RADZ BR BKN010
PROB30
TEMPO 2018/2103 3000 RA SHRA BKN014 SCT030TCU
No reported NOTAMs for that airfield.



MET'MAP, your aeronautical weather chart ! - Copyright ORBIFLY December 2007 - Disclaimer

ORBIFLY MET'MAP TEAM :

Programming & Development : Alexandra Zaïnal
Concept & Development : Baudouin d'Aumeries
Co-Development & Prog : Marc-Olivier Méhu
Technical & hardware support : Manuel Goepfert

Contact : metmap@orbifly.com




SOURCES & CREDITS :

   NOAA